sensor_id;sensor_type;location;lat;lon;timestamp;temperature;humidity
3344;DHT22;1685;53.104;8.228;2022-09-09T00:01:00;14.20;99.90
3344;DHT22;1685;53.104;8.228;2022-09-09T00:03:34;14.30;99.90
3344;DHT22;1685;53.104;8.228;2022-09-09T00:06:09;14.20;99.90
3344;DHT22;1685;53.104;8.228;2022-09-09T00:08:46;14.00;99.90
3344;DHT22;1685;53.104;8.228;2022-09-09T00:11:18;14.20;99.90
3344;DHT22;1685;53.104;8.228;2022-09-09T00:13:49;14.10;99.90
3344;DHT22;1685;53.104;8.228;2022-09-09T00:16:20;14.10;99.90
3344;DHT22;1685;53.104;8.228;2022-09-09T00:18:55;14.10;99.90
3344;DHT22;1685;53.104;8.228;2022-09-09T00:21:28;14.00;99.90
3344;DHT22;1685;53.104;8.228;2022-09-09T00:26:34;14.00;99.90
3344;DHT22;1685;53.104;8.228;2022-09-09T00:29:10;14.10;99.90
3344;DHT22;1685;53.104;8.228;2022-09-09T00:31:40;14.00;99.90
3344;DHT22;1685;53.104;8.228;2022-09-09T00:34:13;14.00;99.90
3344;DHT22;1685;53.104;8.228;2022-09-09T00:36:42;14.00;99.90
3344;DHT22;1685;53.104;8.228;2022-09-09T00:39:15;13.90;99.90
3344;DHT22;1685;53.104;8.228;2022-09-09T00:41:57;14.00;99.90
3344;DHT22;1685;53.104;8.228;2022-09-09T00:44:31;14.00;99.90
3344;DHT22;1685;53.104;8.228;2022-09-09T00:47:10;14.00;99.90
3344;DHT22;1685;53.104;8.228;2022-09-09T00:49:45;13.90;99.90
3344;DHT22;1685;53.104;8.228;2022-09-09T00:52:26;14.00;99.90
3344;DHT22;1685;53.104;8.228;2022-09-09T00:55:03;14.00;99.90
3344;DHT22;1685;53.104;8.228;2022-09-09T00:57:34;14.10;99.90
3344;DHT22;1685;53.104;8.228;2022-09-09T01:00:21;14.10;99.90
3344;DHT22;1685;53.104;8.228;2022-09-09T01:02:55;14.50;99.90
3344;DHT22;1685;53.104;8.228;2022-09-09T01:05:33;14.00;99.90
3344;DHT22;1685;53.104;8.228;2022-09-09T01:08:02;13.90;99.90
3344;DHT22;1685;53.104;8.228;2022-09-09T01:10:41;13.80;99.90
3344;DHT22;1685;53.104;8.228;2022-09-09T01:13:17;13.90;99.90
3344;DHT22;1685;53.104;8.228;2022-09-09T01:15:46;14.00;99.90
3344;DHT22;1685;53.104;8.228;2022-09-09T01:18:16;14.00;99.90
3344;DHT22;1685;53.104;8.228;2022-09-09T01:20:49;13.90;99.90
3344;DHT22;1685;53.104;8.228;2022-09-09T01:23:39;14.00;99.90
3344;DHT22;1685;53.104;8.228;2022-09-09T01:26:23;14.00;99.90
3344;DHT22;1685;53.104;8.228;2022-09-09T01:28:52;13.90;99.90
3344;DHT22;1685;53.104;8.228;2022-09-09T01:31:21;13.80;99.90
3344;DHT22;1685;53.104;8.228;2022-09-09T01:33:49;13.90;99.90
3344;DHT22;1685;53.104;8.228;2022-09-09T01:36:21;13.80;99.90
3344;DHT22;1685;53.104;8.228;2022-09-09T01:38:51;13.80;99.90
3344;DHT22;1685;53.104;8.228;2022-09-09T01:41:20;13.40;99.90
3344;DHT22;1685;53.104;8.228;2022-09-09T01:43:47;13.80;99.90
3344;DHT22;1685;53.104;8.228;2022-09-09T01:46:14;13.70;99.90
3344;DHT22;1685;53.104;8.228;2022-09-09T01:48:43;13.70;99.90
3344;DHT22;1685;53.104;8.228;2022-09-09T01:51:10;14.10;99.90
3344;DHT22;1685;53.104;8.228;2022-09-09T01:53:37;13.80;99.90
3344;DHT22;1685;53.104;8.228;2022-09-09T01:56:14;13.70;99.90
3344;DHT22;1685;53.104;8.228;2022-09-09T01:58:57;13.70;99.90
3344;DHT22;1685;53.104;8.228;2022-09-09T02:01:38;13.60;99.90
3344;DHT22;1685;53.104;8.228;2022-09-09T02:04:13;13.60;99.90
3344;DHT22;1685;53.104;8.228;2022-09-09T02:06:46;13.60;99.90
3344;DHT22;1685;53.104;8.228;2022-09-09T02:09:19;13.60;99.90
3344;DHT22;1685;53.104;8.228;2022-09-09T02:11:50;13.60;99.90
3344;DHT22;1685;53.104;8.228;2022-09-09T02:14:24;13.60;99.90
3344;DHT22;1685;53.104;8.228;2022-09-09T02:16:55;13.60;99.90
3344;DHT22;1685;53.104;8.228;2022-09-09T02:19:25;13.40;99.90
3344;DHT22;1685;53.104;8.228;2022-09-09T02:21:55;13.50;99.90
3344;DHT22;1685;53.104;8.228;2022-09-09T02:26:52;13.30;99.90
3344;DHT22;1685;53.104;8.228;2022-09-09T02:29:24;13.40;99.90
3344;DHT22;1685;53.104;8.228;2022-09-09T02:31:52;13.40;99.90
3344;DHT22;1685;53.104;8.228;2022-09-09T02:34:21;13.40;99.90
3344;DHT22;1685;53.104;8.228;2022-09-09T02:36:50;13.30;99.90
3344;DHT22;1685;53.104;8.228;2022-09-09T02:39:19;13.30;99.90
3344;DHT22;1685;53.104;8.228;2022-09-09T02:41:45;13.50;99.90
3344;DHT22;1685;53.104;8.228;2022-09-09T02:44:14;13.30;99.90
3344;DHT22;1685;53.104;8.228;2022-09-09T02:47:03;13.30;99.90
3344;DHT22;1685;53.104;8.228;2022-09-09T02:49:38;13.30;99.90
3344;DHT22;1685;53.104;8.228;2022-09-09T02:52:08;13.30;99.90
3344;DHT22;1685;53.104;8.228;2022-09-09T02:54:41;13.30;99.90
3344;DHT22;1685;53.104;8.228;2022-09-09T02:57:12;13.30;99.90
3344;DHT22;1685;53.104;8.228;2022-09-09T02:59:39;13.30;99.90
3344;DHT22;1685;53.104;8.228;2022-09-09T03:02:08;13.30;99.90
3344;DHT22;1685;53.104;8.228;2022-09-09T03:04:35;13.10;99.90
3344;DHT22;1685;53.104;8.228;2022-09-09T03:07:02;13.40;99.90
3344;DHT22;1685;53.104;8.228;2022-09-09T03:16:53;13.60;99.90
3344;DHT22;1685;53.104;8.228;2022-09-09T03:19:23;13.70;99.90
3344;DHT22;1685;53.104;8.228;2022-09-09T03:29:11;13.80;99.90
3344;DHT22;1685;53.104;8.228;2022-09-09T03:36:35;13.60;99.90
3344;DHT22;1685;53.104;8.228;2022-09-09T03:41:29;13.60;99.90
3344;DHT22;1685;53.104;8.228;2022-09-09T03:43:56;13.60;99.90
3344;DHT22;1685;53.104;8.228;2022-09-09T03:46:24;13.70;99.90
3344;DHT22;1685;53.104;8.228;2022-09-09T03:48:52;13.70;99.90
3344;DHT22;1685;53.104;8.228;2022-09-09T03:53:48;13.70;99.90
3344;DHT22;1685;53.104;8.228;2022-09-09T04:01:14;13.70;99.90
3344;DHT22;1685;53.104;8.228;2022-09-09T04:03:43;13.70;99.90
3344;DHT22;1685;53.104;8.228;2022-09-09T04:06:11;13.70;99.90
3344;DHT22;1685;53.104;8.228;2022-09-09T04:11:08;13.70;99.90
3344;DHT22;1685;53.104;8.228;2022-09-09T04:13:36;13.70;99.90
3344;DHT22;1685;53.104;8.228;2022-09-09T04:16:04;13.90;99.90
3344;DHT22;1685;53.104;8.228;2022-09-09T04:23:27;13.70;99.90
3344;DHT22;1685;53.104;8.228;2022-09-09T04:25:56;13.70;99.90
3344;DHT22;1685;53.104;8.228;2022-09-09T04:28:25;13.60;99.90
3344;DHT22;1685;53.104;8.228;2022-09-09T04:35:49;13.60;99.90
3344;DHT22;1685;53.104;8.228;2022-09-09T04:38:16;13.60;99.90
3344;DHT22;1685;53.104;8.228;2022-09-09T04:45:41;13.60;99.90
3344;DHT22;1685;53.104;8.228;2022-09-09T04:53:03;13.50;99.90
3344;DHT22;1685;53.104;8.228;2022-09-09T04:55:30;13.30;99.90
3344;DHT22;1685;53.104;8.228;2022-09-09T05:00:24;13.30;99.90
3344;DHT22;1685;53.104;8.228;2022-09-09T05:02:52;13.40;99.90
3344;DHT22;1685;53.104;8.228;2022-09-09T05:07:46;13.50;99.90
3344;DHT22;1685;53.104;8.228;2022-09-09T05:12:42;13.30;99.90
3344;DHT22;1685;53.104;8.228;2022-09-09T05:15:09;13.50;99.90
3344;DHT22;1685;53.104;8.228;2022-09-09T05:17:37;13.40;99.90
3344;DHT22;1685;53.104;8.228;2022-09-09T05:20:06;13.30;99.90
3344;DHT22;1685;53.104;8.228;2022-09-09T05:25:00;13.50;99.90
3344;DHT22;1685;53.104;8.228;2022-09-09T05:34:51;13.60;99.90
3344;DHT22;1685;53.104;8.228;2022-09-09T05:37:19;13.50;99.90
3344;DHT22;1685;53.104;8.228;2022-09-09T05:54:31;13.80;99.90
3344;DHT22;1685;53.104;8.228;2022-09-09T06:11:43;14.20;99.90
3344;DHT22;1685;53.104;8.228;2022-09-09T06:14:11;14.30;99.90
3344;DHT22;1685;53.104;8.228;2022-09-09T06:16:37;14.50;99.90
3344;DHT22;1685;53.104;8.228;2022-09-09T06:21:33;14.30;99.90
3344;DHT22;1685;53.104;8.228;2022-09-09T06:24:02;14.50;99.90
3344;DHT22;1685;53.104;8.228;2022-09-09T06:26:31;14.70;99.90
3344;DHT22;1685;53.104;8.228;2022-09-09T06:29:00;14.70;99.90
3344;DHT22;1685;53.104;8.228;2022-09-09T06:31:30;14.80;99.90
3344;DHT22;1685;53.104;8.228;2022-09-09T06:36:28;14.90;99.90
3344;DHT22;1685;53.104;8.228;2022-09-09T06:41:24;15.00;99.90
3344;DHT22;1685;53.104;8.228;2022-09-09T06:46:21;15.00;99.90
3344;DHT22;1685;53.104;8.228;2022-09-09T06:51:17;15.60;99.90
3344;DHT22;1685;53.104;8.228;2022-09-09T06:56:21;15.90;99.90
3344;DHT22;1685;53.104;8.228;2022-09-09T06:58:49;16.40;99.90
3344;DHT22;1685;53.104;8.228;2022-09-09T07:01:18;16.70;99.90
3344;DHT22;1685;53.104;8.228;2022-09-09T07:03:48;16.60;99.90
3344;DHT22;1685;53.104;8.228;2022-09-09T07:06:17;16.60;99.90
3344;DHT22;1685;53.104;8.228;2022-09-09T07:08:48;17.00;99.90
3344;DHT22;1685;53.104;8.228;2022-09-09T07:16:11;17.50;99.90
3344;DHT22;1685;53.104;8.228;2022-09-09T07:18:39;17.50;99.90
3344;DHT22;1685;53.104;8.228;2022-09-09T07:21:07;17.60;99.90
3344;DHT22;1685;53.104;8.228;2022-09-09T07:30:58;18.00;99.90
3344;DHT22;1685;53.104;8.228;2022-09-09T07:35:52;18.30;99.90
3344;DHT22;1685;53.104;8.228;2022-09-09T07:38:21;18.40;99.90
3344;DHT22;1685;53.104;8.228;2022-09-09T07:55:35;18.80;99.90
3344;DHT22;1685;53.104;8.228;2022-09-09T08:12:48;19.20;99.90
3344;DHT22;1685;53.104;8.228;2022-09-09T08:30:04;19.90;99.90
3344;DHT22;1685;53.104;8.228;2022-09-09T08:42:31;19.80;99.90
3344;DHT22;1685;53.104;8.228;2022-09-09T08:50:42;19.30;99.90
3344;DHT22;1685;53.104;8.228;2022-09-09T08:53:14;19.30;99.90
3344;DHT22;1685;53.104;8.228;2022-09-09T08:55:45;19.40;99.90
3344;DHT22;1685;53.104;8.228;2022-09-09T08:58:16;19.60;99.90
3344;DHT22;1685;53.104;8.228;2022-09-09T09:01:00;19.70;99.90
3344;DHT22;1685;53.104;8.228;2022-09-09T09:03:35;19.80;99.90
3344;DHT22;1685;53.104;8.228;2022-09-09T09:06:23;20.00;99.90
3344;DHT22;1685;53.104;8.228;2022-09-09T09:08:59;20.00;99.90
3344;DHT22;1685;53.104;8.228;2022-09-09T09:13:56;20.50;99.90
3344;DHT22;1685;53.104;8.228;2022-09-09T09:16:29;20.50;99.90
3344;DHT22;1685;53.104;8.228;2022-09-09T09:21:32;20.50;99.90
3344;DHT22;1685;53.104;8.228;2022-09-09T09:24:01;20.70;99.90
3344;DHT22;1685;53.104;8.228;2022-09-09T09:26:34;20.90;99.90
3344;DHT22;1685;53.104;8.228;2022-09-09T09:29:03;20.60;99.90
3344;DHT22;1685;53.104;8.228;2022-09-09T09:31:36;20.30;99.90
3344;DHT22;1685;53.104;8.228;2022-09-09T09:36:34;20.20;99.90
3344;DHT22;1685;53.104;8.228;2022-09-09T09:39:03;20.50;99.90
3344;DHT22;1685;53.104;8.228;2022-09-09T09:41:32;20.90;99.90
3344;DHT22;1685;53.104;8.228;2022-09-09T09:48:59;20.90;99.90
3344;DHT22;1685;53.104;8.228;2022-09-09T09:51:28;20.70;99.90
3344;DHT22;1685;53.104;8.228;2022-09-09T09:54:06;20.80;99.90
3344;DHT22;1685;53.104;8.228;2022-09-09T09:56:35;21.00;99.90
3344;DHT22;1685;53.104;8.228;2022-09-09T10:01:31;20.50;99.90
3344;DHT22;1685;53.104;8.228;2022-09-09T10:04:02;20.30;99.90
3344;DHT22;1685;53.104;8.228;2022-09-09T10:06:30;20.30;99.90
3344;DHT22;1685;53.104;8.228;2022-09-09T10:08:59;20.50;99.90
3344;DHT22;1685;53.104;8.228;2022-09-09T10:11:35;20.60;99.90
3344;DHT22;1685;53.104;8.228;2022-09-09T10:14:15;20.80;99.90
3344;DHT22;1685;53.104;8.228;2022-09-09T10:16:58;21.00;99.90
3344;DHT22;1685;53.104;8.228;2022-09-09T10:19:32;21.20;99.90
3344;DHT22;1685;53.104;8.228;2022-09-09T10:22:05;21.40;99.90
3344;DHT22;1685;53.104;8.228;2022-09-09T10:27:38;21.30;99.90
3344;DHT22;1685;53.104;8.228;2022-09-09T10:30:14;21.50;99.90
3344;DHT22;1685;53.104;8.228;2022-09-09T10:32:47;21.70;99.90
3344;DHT22;1685;53.104;8.228;2022-09-09T10:35:30;21.70;99.90
3344;DHT22;1685;53.104;8.228;2022-09-09T10:38:14;21.60;99.90
3344;DHT22;1685;53.104;8.228;2022-09-09T10:40:47;21.20;99.90
3344;DHT22;1685;53.104;8.228;2022-09-09T10:43:24;21.20;99.90
3344;DHT22;1685;53.104;8.228;2022-09-09T10:46:03;21.40;99.90
3344;DHT22;1685;53.104;8.228;2022-09-09T10:48:42;21.60;99.90
3344;DHT22;1685;53.104;8.228;2022-09-09T10:51:23;21.60;99.90
3344;DHT22;1685;53.104;8.228;2022-09-09T10:54:10;21.70;99.90
3344;DHT22;1685;53.104;8.228;2022-09-09T10:56:42;21.30;99.90
3344;DHT22;1685;53.104;8.228;2022-09-09T10:59:16;21.20;99.90
3344;DHT22;1685;53.104;8.228;2022-09-09T11:01:48;20.80;99.90
3344;DHT22;1685;53.104;8.228;2022-09-09T11:04:21;20.60;99.90
3344;DHT22;1685;53.104;8.228;2022-09-09T11:06:53;20.40;99.90
3344;DHT22;1685;53.104;8.228;2022-09-09T11:09:24;20.40;99.90
3344;DHT22;1685;53.104;8.228;2022-09-09T11:11:53;20.80;99.90
3344;DHT22;1685;53.104;8.228;2022-09-09T11:14:26;21.10;99.90
3344;DHT22;1685;53.104;8.228;2022-09-09T11:16:59;21.10;99.90
3344;DHT22;1685;53.104;8.228;2022-09-09T11:19:29;21.00;99.90
3344;DHT22;1685;53.104;8.228;2022-09-09T11:22:02;20.60;99.90
3344;DHT22;1685;53.104;8.228;2022-09-09T11:24:35;20.60;99.90
3344;DHT22;1685;53.104;8.228;2022-09-09T11:27:09;20.70;99.90
3344;DHT22;1685;53.104;8.228;2022-09-09T11:30:02;20.80;99.90
3344;DHT22;1685;53.104;8.228;2022-09-09T11:32:44;20.60;99.90
3344;DHT22;1685;53.104;8.228;2022-09-09T11:35:27;20.60;99.90
3344;DHT22;1685;53.104;8.228;2022-09-09T11:38:15;20.50;99.90
3344;DHT22;1685;53.104;8.228;2022-09-09T11:40:43;20.40;99.90
3344;DHT22;1685;53.104;8.228;2022-09-09T11:43:14;20.40;99.90
3344;DHT22;1685;53.104;8.228;2022-09-09T11:45:42;20.30;99.90
3344;DHT22;1685;53.104;8.228;2022-09-09T11:48:23;20.30;99.90
3344;DHT22;1685;53.104;8.228;2022-09-09T11:50:58;20.30;99.90
3344;DHT22;1685;53.104;8.228;2022-09-09T11:53:27;20.20;99.90
3344;DHT22;1685;53.104;8.228;2022-09-09T11:56:02;20.20;99.90
3344;DHT22;1685;53.104;8.228;2022-09-09T11:58:33;20.30;99.90
3344;DHT22;1685;53.104;8.228;2022-09-09T12:01:13;20.60;99.90
3344;DHT22;1685;53.104;8.228;2022-09-09T12:03:43;20.90;99.90
3344;DHT22;1685;53.104;8.228;2022-09-09T12:06:14;21.00;99.90
3344;DHT22;1685;53.104;8.228;2022-09-09T12:08:45;21.30;99.90
3344;DHT22;1685;53.104;8.228;2022-09-09T12:11:24;21.30;99.90
3344;DHT22;1685;53.104;8.228;2022-09-09T12:13:58;21.10;99.90
3344;DHT22;1685;53.104;8.228;2022-09-09T12:16:31;21.00;99.90
3344;DHT22;1685;53.104;8.228;2022-09-09T12:19:14;20.50;99.90
3344;DHT22;1685;53.104;8.228;2022-09-09T12:21:48;20.30;99.90
3344;DHT22;1685;53.104;8.228;2022-09-09T12:24:22;20.30;99.90
3344;DHT22;1685;53.104;8.228;2022-09-09T12:26:57;20.20;99.90
3344;DHT22;1685;53.104;8.228;2022-09-09T12:29:30;20.10;99.90
3344;DHT22;1685;53.104;8.228;2022-09-09T12:32:04;20.10;99.90
3344;DHT22;1685;53.104;8.228;2022-09-09T12:34:38;20.10;99.90
3344;DHT22;1685;53.104;8.228;2022-09-09T12:37:11;20.10;99.90
3344;DHT22;1685;53.104;8.228;2022-09-09T12:39:45;20.00;99.90
3344;DHT22;1685;53.104;8.228;2022-09-09T12:42:17;20.00;99.90
3344;DHT22;1685;53.104;8.228;2022-09-09T12:44:52;20.10;99.90
3344;DHT22;1685;53.104;8.228;2022-09-09T12:47:20;19.80;99.90
3344;DHT22;1685;53.104;8.228;2022-09-09T12:49:48;19.80;99.90
3344;DHT22;1685;53.104;8.228;2022-09-09T12:52:20;19.80;99.90
3344;DHT22;1685;53.104;8.228;2022-09-09T12:54:51;19.60;99.90
3344;DHT22;1685;53.104;8.228;2022-09-09T12:57:20;19.60;99.90
3344;DHT22;1685;53.104;8.228;2022-09-09T13:02:21;19.40;99.90
3344;DHT22;1685;53.104;8.228;2022-09-09T13:04:48;19.50;99.90
3344;DHT22;1685;53.104;8.228;2022-09-09T13:12:14;19.50;99.90
3344;DHT22;1685;53.104;8.228;2022-09-09T13:14:44;19.40;99.90
3344;DHT22;1685;53.104;8.228;2022-09-09T13:17:19;19.40;99.90
3344;DHT22;1685;53.104;8.228;2022-09-09T13:19:48;19.40;99.90
3344;DHT22;1685;53.104;8.228;2022-09-09T13:22:22;19.40;99.90
3344;DHT22;1685;53.104;8.228;2022-09-09T13:24:59;19.30;99.90
3344;DHT22;1685;53.104;8.228;2022-09-09T13:27:31;15.90;99.90
3344;DHT22;1685;53.104;8.228;2022-09-09T13:32:28;19.30;99.90
3344;DHT22;1685;53.104;8.228;2022-09-09T13:34:57;19.30;99.90
3344;DHT22;1685;53.104;8.228;2022-09-09T13:37:29;19.30;99.90
3344;DHT22;1685;53.104;8.228;2022-09-09T13:42:27;19.40;99.90
3344;DHT22;1685;53.104;8.228;2022-09-09T13:44:56;19.30;99.90
3344;DHT22;1685;53.104;8.228;2022-09-09T13:47:29;19.30;99.90
3344;DHT22;1685;53.104;8.228;2022-09-09T13:54:52;19.10;99.90
3344;DHT22;1685;53.104;8.228;2022-09-09T13:57:22;19.00;99.90
3344;DHT22;1685;53.104;8.228;2022-09-09T14:02:18;18.90;99.90
3344;DHT22;1685;53.104;8.228;2022-09-09T14:07:17;18.90;99.90
3344;DHT22;1685;53.104;8.228;2022-09-09T14:12:16;18.80;99.90
3344;DHT22;1685;53.104;8.228;2022-09-09T14:19:39;18.80;99.90
3344;DHT22;1685;53.104;8.228;2022-09-09T14:36:50;18.70;99.90
3344;DHT22;1685;53.104;8.228;2022-09-09T14:54:00;18.50;99.90
3344;DHT22;1685;53.104;8.228;2022-09-09T14:56:30;18.50;99.90
3344;DHT22;1685;53.104;8.228;2022-09-09T14:58:58;18.40;99.90
3344;DHT22;1685;53.104;8.228;2022-09-09T15:03:55;18.40;99.90
3344;DHT22;1685;53.104;8.228;2022-09-09T15:08:51;18.30;99.90
3344;DHT22;1685;53.104;8.228;2022-09-09T15:11:20;18.30;99.90
3344;DHT22;1685;53.104;8.228;2022-09-09T15:16:16;18.20;99.90
3344;DHT22;1685;53.104;8.228;2022-09-09T15:18:44;18.30;99.90
3344;DHT22;1685;53.104;8.228;2022-09-09T15:21:12;18.30;99.90
3344;DHT22;1685;53.104;8.228;2022-09-09T15:28:37;18.40;99.90
3344;DHT22;1685;53.104;8.228;2022-09-09T15:31:06;18.40;99.90
3344;DHT22;1685;53.104;8.228;2022-09-09T15:33:34;18.40;99.90
3344;DHT22;1685;53.104;8.228;2022-09-09T15:36:12;18.40;99.90
3344;DHT22;1685;53.104;8.228;2022-09-09T15:46:21;18.40;99.90
3344;DHT22;1685;53.104;8.228;2022-09-09T16:01:10;18.60;99.90
3344;DHT22;1685;53.104;8.228;2022-09-09T16:03:39;18.60;99.90
3344;DHT22;1685;53.104;8.228;2022-09-09T16:08:34;18.60;99.90
3344;DHT22;1685;53.104;8.228;2022-09-09T16:11:06;18.70;99.90
3344;DHT22;1685;53.104;8.228;2022-09-09T16:18:35;18.50;99.90
3344;DHT22;1685;53.104;8.228;2022-09-09T16:35:47;18.30;99.90
3344;DHT22;1685;53.104;8.228;2022-09-09T16:45:42;18.30;99.90
3344;DHT22;1685;53.104;8.228;2022-09-09T16:53:05;18.10;99.90
3344;DHT22;1685;53.104;8.228;2022-09-09T16:55:38;18.00;99.90
3344;DHT22;1685;53.104;8.228;2022-09-09T17:10:24;17.30;99.90
3344;DHT22;1685;53.104;8.228;2022-09-09T17:25:12;17.10;99.90
3344;DHT22;1685;53.104;8.228;2022-09-09T17:27:40;17.00;99.90
3344;DHT22;1685;53.104;8.228;2022-09-09T17:30:07;17.20;99.90
3344;DHT22;1685;53.104;8.228;2022-09-09T17:35:02;17.00;99.90
3344;DHT22;1685;53.104;8.228;2022-09-09T17:37:31;17.10;99.90
3344;DHT22;1685;53.104;8.228;2022-09-09T17:44:53;16.80;99.90
3344;DHT22;1685;53.104;8.228;2022-09-09T18:02:04;16.50;99.90
3344;DHT22;1685;53.104;8.228;2022-09-09T18:04:31;16.30;99.90
3344;DHT22;1685;53.104;8.228;2022-09-09T18:09:25;16.10;99.90
3344;DHT22;1685;53.104;8.228;2022-09-09T18:11:55;16.20;99.90
3344;DHT22;1685;53.104;8.228;2022-09-09T18:14:23;16.10;99.90
3344;DHT22;1685;53.104;8.228;2022-09-09T18:16:51;16.10;99.90
3344;DHT22;1685;53.104;8.228;2022-09-09T18:19:21;16.10;99.90
3344;DHT22;1685;53.104;8.228;2022-09-09T18:24:16;16.20;99.90
3344;DHT22;1685;53.104;8.228;2022-09-09T18:29:14;16.20;99.90
3344;DHT22;1685;53.104;8.228;2022-09-09T18:34:12;16.00;99.90
3344;DHT22;1685;53.104;8.228;2022-09-09T18:36:42;15.90;99.90
3344;DHT22;1685;53.104;8.228;2022-09-09T18:39:10;15.90;99.90
3344;DHT22;1685;53.104;8.228;2022-09-09T18:41:38;15.90;99.90
3344;DHT22;1685;53.104;8.228;2022-09-09T18:44:07;15.70;99.90
3344;DHT22;1685;53.104;8.228;2022-09-09T18:49:05;15.80;99.90
3344;DHT22;1685;53.104;8.228;2022-09-09T18:51:32;15.70;99.90
3344;DHT22;1685;53.104;8.228;2022-09-09T18:54:04;15.60;99.90
3344;DHT22;1685;53.104;8.228;2022-09-09T18:59:02;15.60;99.90
3344;DHT22;1685;53.104;8.228;2022-09-09T19:06:26;15.50;99.90
3344;DHT22;1685;53.104;8.228;2022-09-09T19:08:55;15.30;99.90
3344;DHT22;1685;53.104;8.228;2022-09-09T19:11:25;15.40;99.90
3344;DHT22;1685;53.104;8.228;2022-09-09T19:13:54;15.40;99.90
3344;DHT22;1685;53.104;8.228;2022-09-09T19:16:23;15.40;99.90
3344;DHT22;1685;53.104;8.228;2022-09-09T19:21:19;15.30;99.90
3344;DHT22;1685;53.104;8.228;2022-09-09T19:23:48;15.40;99.90
3344;DHT22;1685;53.104;8.228;2022-09-09T19:26:15;14.90;99.90
3344;DHT22;1685;53.104;8.228;2022-09-09T19:28:45;15.20;99.90
3344;DHT22;1685;53.104;8.228;2022-09-09T19:31:15;15.20;99.90
3344;DHT22;1685;53.104;8.228;2022-09-09T19:33:43;15.20;99.90
3344;DHT22;1685;53.104;8.228;2022-09-09T19:36:11;15.10;99.90
3344;DHT22;1685;53.104;8.228;2022-09-09T19:38:39;15.10;99.90
3344;DHT22;1685;53.104;8.228;2022-09-09T19:41:09;15.10;99.90
3344;DHT22;1685;53.104;8.228;2022-09-09T19:46:06;15.10;99.90
3344;DHT22;1685;53.104;8.228;2022-09-09T19:48:35;15.00;99.90
3344;DHT22;1685;53.104;8.228;2022-09-09T19:51:05;15.00;99.90
3344;DHT22;1685;53.104;8.228;2022-09-09T19:53:35;14.90;99.90
3344;DHT22;1685;53.104;8.228;2022-09-09T19:56:02;14.90;99.90
3344;DHT22;1685;53.104;8.228;2022-09-09T19:58:29;14.90;99.90
3344;DHT22;1685;53.104;8.228;2022-09-09T20:01:06;14.80;99.90
3344;DHT22;1685;53.104;8.228;2022-09-09T20:03:34;15.10;99.90
3344;DHT22;1685;53.104;8.228;2022-09-09T20:08:30;14.80;99.90
3344;DHT22;1685;53.104;8.228;2022-09-09T20:10:56;14.80;99.90
3344;DHT22;1685;53.104;8.228;2022-09-09T20:13:24;14.90;99.90
3344;DHT22;1685;53.104;8.228;2022-09-09T20:15:58;14.80;99.90
3344;DHT22;1685;53.104;8.228;2022-09-09T20:18:27;15.00;99.90
3344;DHT22;1685;53.104;8.228;2022-09-09T20:20:56;14.80;99.90
3344;DHT22;1685;53.104;8.228;2022-09-09T20:30:46;14.70;99.90
3344;DHT22;1685;53.104;8.228;2022-09-09T20:33:13;14.80;99.90
3344;DHT22;1685;53.104;8.228;2022-09-09T20:35:41;14.70;99.90
3344;DHT22;1685;53.104;8.228;2022-09-09T20:38:08;14.60;99.90
3344;DHT22;1685;53.104;8.228;2022-09-09T20:40:35;14.80;99.90
3344;DHT22;1685;53.104;8.228;2022-09-09T20:43:01;14.60;99.90
3344;DHT22;1685;53.104;8.228;2022-09-09T20:52:51;16.70;99.90
3344;DHT22;1685;53.104;8.228;2022-09-09T20:55:18;14.60;99.90
3344;DHT22;1685;53.104;8.228;2022-09-09T21:00:12;14.70;99.90
3344;DHT22;1685;53.104;8.228;2022-09-09T21:05:07;14.70;99.90
3344;DHT22;1685;53.104;8.228;2022-09-09T21:10:05;14.60;99.90
3344;DHT22;1685;53.104;8.228;2022-09-09T21:17:26;14.60;99.90
3344;DHT22;1685;53.104;8.228;2022-09-09T21:19:53;14.20;99.90
3344;DHT22;1685;53.104;8.228;2022-09-09T21:27:16;14.60;99.90
3344;DHT22;1685;53.104;8.228;2022-09-09T21:32:11;14.50;99.90
3344;DHT22;1685;53.104;8.228;2022-09-09T21:37:06;14.60;99.90
3344;DHT22;1685;53.104;8.228;2022-09-09T21:44:29;14.70;99.90
3344;DHT22;1685;53.104;8.228;2022-09-09T21:46:55;14.60;99.90
3344;DHT22;1685;53.104;8.228;2022-09-09T21:51:49;14.70;99.90
3344;DHT22;1685;53.104;8.228;2022-09-09T21:54:16;14.60;99.90
3344;DHT22;1685;53.104;8.228;2022-09-09T21:56:43;14.60;99.90
3344;DHT22;1685;53.104;8.228;2022-09-09T22:01:38;14.60;99.90
3344;DHT22;1685;53.104;8.228;2022-09-09T22:06:33;14.50;99.90
3344;DHT22;1685;53.104;8.228;2022-09-09T22:09:00;14.60;99.90
3344;DHT22;1685;53.104;8.228;2022-09-09T22:11:27;14.50;99.90
3344;DHT22;1685;53.104;8.228;2022-09-09T22:16:22;14.60;99.90
3344;DHT22;1685;53.104;8.228;2022-09-09T22:18:52;14.50;99.90
3344;DHT22;1685;53.104;8.228;2022-09-09T22:23:50;14.70;99.90
3344;DHT22;1685;53.104;8.228;2022-09-09T22:28:45;14.70;99.90
3344;DHT22;1685;53.104;8.228;2022-09-09T22:31:12;14.60;99.90
3344;DHT22;1685;53.104;8.228;2022-09-09T22:33:39;14.60;99.90
3344;DHT22;1685;53.104;8.228;2022-09-09T22:36:07;14.60;99.90
3344;DHT22;1685;53.104;8.228;2022-09-09T22:38:34;14.70;99.90
3344;DHT22;1685;53.104;8.228;2022-09-09T22:41:01;14.80;99.90
3344;DHT22;1685;53.104;8.228;2022-09-09T22:43:28;14.60;99.90
3344;DHT22;1685;53.104;8.228;2022-09-09T22:45:57;14.60;99.90
3344;DHT22;1685;53.104;8.228;2022-09-09T22:48:24;14.70;99.90
3344;DHT22;1685;53.104;8.228;2022-09-09T22:50:51;14.50;99.90
3344;DHT22;1685;53.104;8.228;2022-09-09T22:53:19;14.60;99.90
3344;DHT22;1685;53.104;8.228;2022-09-09T22:55:55;14.70;99.90
3344;DHT22;1685;53.104;8.228;2022-09-09T22:58:23;14.50;99.90
3344;DHT22;1685;53.104;8.228;2022-09-09T23:03:17;14.60;99.90
3344;DHT22;1685;53.104;8.228;2022-09-09T23:05:52;14.50;99.90
3344;DHT22;1685;53.104;8.228;2022-09-09T23:08:23;14.70;99.90
3344;DHT22;1685;53.104;8.228;2022-09-09T23:10:50;14.60;99.90
3344;DHT22;1685;53.104;8.228;2022-09-09T23:15:45;14.70;99.90
3344;DHT22;1685;53.104;8.228;2022-09-09T23:23:07;14.40;99.90
3344;DHT22;1685;53.104;8.228;2022-09-09T23:25:37;14.50;99.90
3344;DHT22;1685;53.104;8.228;2022-09-09T23:28:03;14.30;99.90
3344;DHT22;1685;53.104;8.228;2022-09-09T23:30:30;14.60;99.90
3344;DHT22;1685;53.104;8.228;2022-09-09T23:32:57;14.60;99.90
3344;DHT22;1685;53.104;8.228;2022-09-09T23:35:24;14.70;99.90
3344;DHT22;1685;53.104;8.228;2022-09-09T23:37:51;14.40;99.90
3344;DHT22;1685;53.104;8.228;2022-09-09T23:42:46;14.40;99.90
3344;DHT22;1685;53.104;8.228;2022-09-09T23:45:13;14.50;99.90
3344;DHT22;1685;53.104;8.228;2022-09-09T23:50:08;14.50;99.90
3344;DHT22;1685;53.104;8.228;2022-09-09T23:55:02;14.40;99.90
3344;DHT22;1685;53.104;8.228;2022-09-09T23:57:30;14.40;99.90
3344;DHT22;1685;53.104;8.228;2022-09-09T23:59:58;14.40;99.90
